Lee, Nevada
Current Conditions -  °F | °C
As of 4:23 AM on Monday 22 Dec 2014 (Local Time) from KEKO Reporting Station
Overcast Overcast  
Wind Chill: 38°   Ceiling: 2400
Heat Index: 44°   Visibility: 10mi
Dew Point: 40°   Wind: 12mph
Humidity: 85%   Direction: 250°WSW
Pressure: 30.09"   Gusts: NA
Location:  40.8005°N, 115.707°W
Report Text: KEKO 221223Z AUTO 25010KT 10SM BKN024 BKN060 OVC090 07/04 A3009 RMK AO2 T00670044
Loading
Personal Weather Stations






























Interactive Weather Map New forecast layout! Learn more

10-Day Weather Forecast

Advertisements
Track Severe Weather on mobile